createdAt,value
2019-01-02T00:00:44.014Z,99994.02
2019-01-02T00:03:13.463Z,99992.69
2019-01-02T00:05:43.194Z,99978.11
2019-01-02T00:08:12.580Z,99976.64
2019-01-02T00:10:42.417Z,99974.59
2019-01-02T00:13:11.879Z,99970.14
2019-01-02T00:15:41.293Z,99971.22
2019-01-02T00:18:10.755Z,99973.28
2019-01-02T00:20:40.244Z,99975.09
2019-01-02T00:23:10.303Z,99976.16
2019-01-02T00:25:39.743Z,99972.20
2019-01-02T00:28:09.463Z,99971.34
2019-01-02T00:30:39.007Z,99966.87
2019-01-02T00:33:09.014Z,99970.73
2019-01-02T00:35:38.477Z,99963.97
2019-01-02T00:38:08.027Z,99965.52
2019-01-02T00:40:37.570Z,99960.59
2019-01-02T00:43:07.158Z,99956.25
2019-01-02T00:45:36.645Z,99946.13
2019-01-02T00:48:06.073Z,99947.11
2019-01-02T00:50:35.882Z,99949.88
2019-01-02T00:53:05.413Z,99944.23
2019-01-02T00:55:35.166Z,99941.20
2019-01-02T00:58:04.622Z,99942.19
2019-01-02T01:00:34.448Z,99932.69
2019-01-02T01:03:04.008Z,99932.67
2019-01-02T01:05:33.791Z,99932.08
2019-01-02T01:08:03.186Z,99928.35
2019-01-02T01:10:32.710Z,99921.84
2019-01-02T01:13:02.152Z,99921.48
2019-01-02T01:15:31.700Z,99919.78
2019-01-02T01:18:01.085Z,99910.14
2019-01-02T01:20:30.568Z,99910.64
2019-01-02T01:23:00.136Z,99906.05
2019-01-02T01:25:29.887Z,99907.13
2019-01-02T01:27:59.251Z,99902.45
2019-01-02T01:30:28.825Z,99902.45
2019-01-02T01:32:58.267Z,99894.50
2019-01-02T01:35:27.760Z,99889.20
2019-01-02T01:37:57.696Z,99888.36
2019-01-02T01:40:27.210Z,99874.62
2019-01-02T01:42:56.777Z,99866.53
2019-01-02T01:45:26.589Z,99861.38
2019-01-02T01:47:56.084Z,99866.05
2019-01-02T01:50:25.582Z,99858.11
2019-01-02T01:52:55.123Z,99854.02
2019-01-02T01:55:24.589Z,99844.62
2019-01-02T01:57:54.324Z,99835.60
2019-01-02T02:00:23.981Z,99827.53
2019-01-02T02:02:53.660Z,99825.48
2019-01-02T02:05:23.569Z,99814.75
2019-01-02T02:07:53.057Z,99811.14
2019-01-02T02:10:22.545Z,99797.78
2019-01-02T02:12:52.128Z,99789.25
2019-01-02T02:15:21.592Z,99788.77
2019-01-02T02:17:51.391Z,99786.13
2019-01-02T02:20:20.872Z,99781.31
2019-01-02T02:22:50.554Z,99778.07
2019-01-02T02:25:21.548Z,99769.12
2019-01-02T02:27:51.016Z,99769.12
2019-01-02T02:30:20.881Z,99770.72
2019-01-02T02:32:51.929Z,99767.94
2019-01-02T02:35:21.695Z,99763.97
2019-01-02T02:37:51.576Z,99762.68
2019-01-02T02:40:21.105Z,99765.69
2019-01-02T02:42:50.499Z,99762.77
2019-01-02T02:45:20.224Z,99762.16
2019-01-02T02:47:50.108Z,99760.23
2019-01-02T02:50:19.919Z,99760.72
2019-01-02T02:52:49.575Z,99755.19
2019-01-02T02:55:27.163Z,99754.91
2019-01-02T02:57:56.772Z,99753.21
2019-01-02T03:00:26.204Z,99746.61
2019-01-02T03:02:55.636Z,99738.78
2019-01-02T03:05:25.110Z,99735.66
2019-01-02T03:07:54.651Z,99722.18
2019-01-02T03:10:24.615Z,99725.19
2019-01-02T03:12:54.309Z,99724.09
2019-01-02T03:15:24.251Z,99720.61
2019-01-02T03:17:53.750Z,99719.51
2019-01-02T03:20:23.163Z,99715.06
2019-01-02T03:22:52.579Z,99708.67
2019-01-02T03:25:22.472Z,99707.58
2019-01-02T03:27:52.841Z,99702.28
2019-01-02T03:30:22.500Z,99701.92
2019-01-02T03:32:52.173Z,99696.63
2019-01-02T03:35:22.034Z,99688.30
2019-01-02T03:37:51.527Z,99688.08
2019-01-02T03:40:21.459Z,99684.80
2019-01-02T03:42:50.878Z,99682.02
2019-01-02T03:45:20.868Z,99676.51
2019-01-02T03:47:50.625Z,99675.19
2019-01-02T03:50:21.021Z,99672.08
2019-01-02T03:52:50.447Z,99670.39
2019-01-02T03:55:19.992Z,99673.25
2019-01-02T03:57:50.017Z,99673.66
2019-01-02T04:00:20.664Z,99663.78
2019-01-02T04:02:50.302Z,99657.17
2019-01-02T04:05:25.061Z,99654.57
2019-01-02T04:07:58.694Z,99653.72
2019-01-02T04:10:28.222Z,99653.84
2019-01-02T04:12:57.766Z,99653.58
2019-01-02T04:15:27.361Z,99647.93
2019-01-02T04:17:56.771Z,99656.38
2019-01-02T04:20:26.243Z,99651.30
2019-01-02T04:22:55.795Z,99640.15
2019-01-02T04:25:25.218Z,99640.38
2019-01-02T04:27:54.690Z,99638.57
2019-01-02T04:30:24.175Z,99629.77
2019-01-02T04:32:53.669Z,99627.02
2019-01-02T04:35:23.176Z,99627.13
2019-01-02T04:37:52.601Z,99627.45
2019-01-02T04:40:22.096Z,99623.74
2019-01-02T04:42:51.599Z,99626.02
2019-01-02T04:45:21.022Z,99629.25
2019-01-02T04:47:50.531Z,99622.13
2019-01-02T04:50:20.017Z,99618.78
2019-01-02T04:52:49.516Z,99617.78
2019-01-02T04:55:18.920Z,99620.78
2019-01-02T04:57:48.346Z,99623.64
2019-01-02T05:00:18.644Z,99621.10
2019-01-02T05:02:48.142Z,99613.28
2019-01-02T05:05:17.579Z,99611.28
2019-01-02T05:07:47.584Z,99607.94
2019-01-02T05:10:17.100Z,99614.38
2019-01-02T05:12:46.638Z,99608.72
2019-01-02T05:15:16.097Z,99612.99
2019-01-02T05:17:45.606Z,99599.44
2019-01-02T05:20:16.673Z,99603.64
2019-01-02T05:22:46.143Z,99600.95
2019-01-02T05:25:15.630Z,99599.03
2019-01-02T05:27:45.638Z,99594.91
2019-01-02T05:30:19.537Z,99592.83
2019-01-02T05:32:48.996Z,99594.84
2019-01-02T05:35:18.470Z,99589.45
2019-01-02T05:37:48.007Z,99595.20
2019-01-02T05:40:22.521Z,99598.30
2019-01-02T05:42:51.987Z,99600.35
2019-01-02T05:45:21.435Z,99605.17
2019-01-02T05:47:50.920Z,99601.24
2019-01-02T05:50:20.414Z,99600.47
2019-01-02T05:52:49.902Z,99607.12
2019-01-02T05:55:19.392Z,99610.16
2019-01-02T05:57:48.896Z,99609.38
2019-01-02T06:00:18.339Z,99602.78
2019-01-02T06:02:47.850Z,99607.69
2019-01-02T06:05:17.444Z,99602.19
2019-01-02T06:07:47.052Z,99597.66
2019-01-02T06:10:17.083Z,99601.15
2019-01-02T06:12:46.536Z,99601.78
2019-01-02T06:15:17.345Z,99599.52
2019-01-02T06:17:46.790Z,99598.34
2019-01-02T06:20:17.657Z,99596.34
2019-01-02T06:22:47.024Z,99599.61
2019-01-02T06:25:16.522Z,99594.11
2019-01-02T06:27:46.047Z,99599.02
2019-01-02T06:30:15.483Z,99599.81
2019-01-02T06:32:44.955Z,99602.11
2019-01-02T06:35:14.521Z,99591.64
2019-01-02T06:37:44.066Z,99590.46
2019-01-02T06:40:14.294Z,99595.13
2019-01-02T06:42:43.797Z,99593.91
2019-01-02T06:45:15.271Z,99589.44
2019-01-02T06:47:44.681Z,99589.77
2019-01-02T06:50:20.038Z,99584.57
2019-01-02T06:52:49.535Z,99575.94
2019-01-02T06:55:19.128Z,99579.67
2019-01-02T06:57:48.526Z,99574.95
2019-01-02T07:00:39.779Z,99582.65
2019-01-02T07:03:09.221Z,99580.09
2019-01-02T07:05:38.612Z,99590.97
2019-01-02T07:08:08.122Z,99594.55
2019-01-02T07:10:37.569Z,99592.70
2019-01-02T07:13:07.022Z,99603.45
2019-01-02T07:15:36.424Z,99601.92
2019-01-02T07:18:05.799Z,99595.42
2019-01-02T07:20:35.297Z,99597.30
2019-01-02T07:23:04.733Z,99603.22
2019-01-02T07:25:34.246Z,99599.06
2019-01-02T07:28:03.650Z,99591.25
2019-01-02T07:30:33.149Z,99593.17
2019-01-02T07:33:02.597Z,99583.69
2019-01-02T07:36:12.511Z,99579.61
2019-01-02T07:39:05.665Z,99578.16
2019-01-02T07:42:28.110Z,99577.66
2019-01-02T07:45:50.583Z,99570.78
2019-01-02T07:49:25.000Z,99564.17
2019-01-02T07:52:29.635Z,99555.94
2019-01-02T07:55:49.214Z,99554.38
2019-01-02T07:58:41.744Z,99549.48
2019-01-02T08:02:00.032Z,99534.16
2019-01-02T08:05:10.096Z,99532.53
2019-01-02T08:08:16.258Z,99527.97
2019-01-02T08:11:22.760Z,99514.12
2019-01-02T08:14:38.198Z,99511.75
2019-01-02T08:18:00.795Z,99517.44
2019-01-02T08:21:29.428Z,99514.98
2019-01-02T08:24:48.647Z,99510.89
2019-01-02T08:27:46.165Z,99511.06
2019-01-02T08:30:54.881Z,99515.06
2019-01-02T08:33:55.339Z,99507.73
2019-01-02T08:37:20.906Z,99499.22
2019-01-02T08:40:14.203Z,99499.66
2019-01-02T08:43:15.024Z,99506.54
2019-01-02T08:46:25.608Z,99503.18
2019-01-02T08:49:51.136Z,99501.79
2019-01-02T08:52:58.551Z,99496.11
2019-01-02T08:56:15.341Z,99490.35
2019-01-02T08:58:57.133Z,99496.88
2019-01-02T09:01:55.749Z,99489.87
2019-01-02T09:04:47.209Z,99491.30
2019-01-02T09:07:47.812Z,99466.25
2019-01-02T09:11:16.469Z,99468.36
2019-01-02T09:14:27.007Z,99470.27
2019-01-02T09:17:58.506Z,99460.11
2019-01-02T09:21:06.582Z,99456.47
2019-01-02T09:24:28.921Z,99448.56
2019-01-02T09:27:45.375Z,99438.23
2019-01-02T09:31:11.349Z,99433.23
2019-01-02T09:34:15.949Z,99422.80
2019-01-02T09:37:26.376Z,99420.57
2019-01-02T09:40:33.993Z,99415.34
2019-01-02T09:44:05.571Z,99414.55
2019-01-02T09:47:13.237Z,99409.67
2019-01-02T09:50:12.373Z,99408.86
2019-01-02T09:53:26.790Z,99405.94
2019-01-02T09:56:24.780Z,99399.47
2019-01-02T09:59:16.561Z,99396.97
2019-01-02T10:02:18.546Z,99391.24
2019-01-02T10:05:34.704Z,99386.02
2019-01-02T10:08:48.709Z,99372.04
2019-01-02T10:11:58.184Z,99368.02
2019-01-02T10:14:45.955Z,99374.70
2019-01-02T10:18:01.399Z,99372.09
2019-01-02T10:21:06.375Z,99365.84
2019-01-02T10:24:18.029Z,99361.02
2019-01-02T10:27:26.524Z,99363.30
2019-01-02T10:30:27.690Z,99351.13
2019-01-02T10:34:02.663Z,99359.73
2019-01-02T10:37:07.622Z,99350.14
2019-01-02T10:40:17.866Z,99346.69
2019-01-02T10:43:14.942Z,99341.45
2019-01-02T10:46:21.154Z,99337.44
2019-01-02T10:49:17.320Z,99329.70
2019-01-02T10:52:32.350Z,99331.36
2019-01-02T10:55:23.902Z,99315.91
2019-01-02T10:58:55.261Z,99324.03
2019-01-02T11:02:11.442Z,99319.22
2019-01-02T11:05:32.984Z,99300.43
2019-01-02T11:08:36.379Z,99300.89
2019-01-02T11:11:37.062Z,99301.88
2019-01-02T11:14:17.051Z,99295.59
2019-01-02T11:17:18.976Z,99299.09
2019-01-02T11:20:57.019Z,99295.67
2019-01-02T11:24:09.806Z,99296.00
2019-01-02T11:27:13.881Z,99287.03
2019-01-02T11:30:18.500Z,99292.88
2019-01-02T11:33:20.257Z,99290.62
2019-01-02T11:36:26.279Z,99281.06
2019-01-02T11:39:57.320Z,99272.81
2019-01-02T11:43:18.960Z,99268.63
2019-01-02T11:45:48.347Z,99273.68
2019-01-02T11:48:17.738Z,99280.59
2019-01-02T11:50:47.270Z,99274.17
2019-01-02T11:53:16.778Z,99280.30
2019-01-02T11:55:46.339Z,99288.25
2019-01-02T11:58:16.277Z,99274.97
2019-01-02T12:00:45.714Z,99270.64
2019-01-02T12:03:15.294Z,99272.48
2019-01-02T12:05:44.731Z,99260.45
2019-01-02T12:08:14.289Z,99266.30
2019-01-02T12:10:43.754Z,99269.60
2019-01-02T12:13:13.279Z,99268.97
2019-01-02T12:15:42.695Z,99263.42
2019-01-02T12:18:12.182Z,99273.69
2019-01-02T12:20:41.638Z,99263.61
2019-01-02T12:23:11.082Z,99280.48
2019-01-02T12:25:40.474Z,99267.80
2019-01-02T12:28:09.875Z,99269.36
2019-01-02T12:30:39.396Z,99273.09
2019-01-02T12:33:08.948Z,99277.74
2019-01-02T12:35:38.408Z,99284.31
2019-01-02T12:38:07.860Z,99283.17
2019-01-02T12:40:37.404Z,99280.91
2019-01-02T12:43:06.808Z,99287.83
2019-01-02T12:45:36.302Z,99292.07
2019-01-02T12:48:05.823Z,99304.36
2019-01-02T12:50:35.322Z,99298.23
2019-01-02T12:53:04.765Z,99308.63
2019-01-02T12:55:34.322Z,99307.29
2019-01-02T12:58:03.801Z,99313.17
2019-01-02T13:00:39.383Z,99309.97
2019-01-02T13:03:25.778Z,99313.00
2019-01-02T13:06:51.415Z,99304.98
2019-01-02T13:09:44.969Z,99318.36
2019-01-02T13:12:45.125Z,99317.32
2019-01-02T13:15:35.276Z,99321.70
2019-01-02T13:18:42.809Z,99320.73
2019-01-02T13:22:11.267Z,99322.25
2019-01-02T13:25:19.683Z,99315.73
2019-01-02T13:28:31.065Z,99323.59
2019-01-02T13:31:43.416Z,99325.77
2019-01-02T13:34:45.012Z,99319.91
2019-01-02T13:37:56.816Z,99316.09
2019-01-02T13:41:10.042Z,99324.75
2019-01-02T13:43:57.789Z,99319.09
2019-01-02T13:47:03.960Z,99318.44
2019-01-02T13:49:53.760Z,99317.81
2019-01-02T13:52:23.261Z,99321.47
2019-01-02T13:54:54.301Z,99326.48
2019-01-02T13:57:23.839Z,99321.16
2019-01-02T13:59:53.288Z,99323.48
2019-01-02T14:02:23.802Z,99324.83
2019-01-02T14:04:53.256Z,99326.48
2019-01-02T14:07:22.683Z,99334.02
2019-01-02T14:09:52.309Z,99332.00
2019-01-02T14:12:21.798Z,99335.17
2019-01-02T14:14:51.256Z,99338.17
2019-01-02T14:17:20.727Z,99343.84
2019-01-02T14:19:50.259Z,99339.51
2019-01-02T14:22:19.646Z,99347.66
2019-01-02T14:24:49.138Z,99352.81
2019-01-02T14:27:18.614Z,99355.79
2019-01-02T14:29:48.089Z,99349.57
2019-01-02T14:32:17.542Z,99357.38
2019-01-02T14:34:47.067Z,99353.46
2019-01-02T14:37:16.553Z,99361.94
2019-01-02T14:39:46.063Z,99360.75
2019-01-02T14:42:15.662Z,99366.70
2019-01-02T14:44:45.121Z,99368.84
2019-01-02T14:47:14.555Z,99373.13
2019-01-02T14:49:44.002Z,99381.88
2019-01-02T14:52:13.462Z,99373.84
2019-01-02T14:54:42.943Z,99383.97
2019-01-02T14:57:12.408Z,99375.03
2019-01-02T14:59:41.903Z,99381.45
2019-01-02T15:02:11.350Z,99376.74
2019-01-02T15:04:40.848Z,99374.17
2019-01-02T15:07:10.384Z,99371.25
2019-01-02T15:09:39.823Z,99369.56
2019-01-02T15:12:09.253Z,99373.82
2019-01-02T15:14:38.883Z,99368.08
2019-01-02T15:17:08.373Z,99368.52
2019-01-02T15:19:37.916Z,99372.64
2019-01-02T15:22:07.445Z,99377.84
2019-01-02T15:24:36.914Z,99378.59
2019-01-02T15:27:06.370Z,99385.94
2019-01-02T15:29:35.764Z,99391.16
2019-01-02T15:32:05.223Z,99396.73
2019-01-02T15:34:34.709Z,99405.07
2019-01-02T15:37:04.265Z,99409.41
2019-01-02T15:39:33.801Z,99412.30
2019-01-02T15:42:03.275Z,99416.50
2019-01-02T15:44:32.760Z,99424.48
2019-01-02T15:47:08.529Z,99425.31
2019-01-02T15:49:34.872Z,99427.75
2019-01-02T15:52:04.529Z,99428.73
2019-01-02T15:54:33.958Z,99432.75
2019-01-02T15:57:03.443Z,99434.69
2019-01-02T15:59:33.088Z,99431.30
2019-01-02T16:02:02.583Z,99433.55
2019-01-02T16:04:32.143Z,99430.14
2019-01-02T16:07:01.664Z,99431.30
2019-01-02T16:09:31.232Z,99434.98
2019-01-02T16:12:00.687Z,99441.53
2019-01-02T16:14:30.140Z,99448.82
2019-01-02T16:16:59.745Z,99449.42
2019-01-02T16:19:29.238Z,99445.58
2019-01-02T16:21:58.690Z,99452.43
2019-01-02T16:24:28.142Z,99453.83
2019-01-02T16:26:58.260Z,99451.10
2019-01-02T16:29:27.840Z,99456.48
2019-01-02T16:31:57.420Z,99458.45
2019-01-02T16:34:26.811Z,99458.38
2019-01-02T16:36:56.242Z,99449.98
2019-01-02T16:39:25.699Z,99456.70
2019-01-02T16:41:55.198Z,99450.69
2019-01-02T16:44:24.636Z,99444.08
2019-01-02T16:46:54.008Z,99461.67
2019-01-02T16:49:23.572Z,99465.66
2019-01-02T16:51:53.035Z,99468.92
2019-01-02T16:54:22.454Z,99470.95
2019-01-02T16:56:51.937Z,99477.60
2019-01-02T16:59:21.601Z,99488.24
2019-01-02T17:01:50.967Z,99479.81
2019-01-02T17:04:20.532Z,99482.33
2019-01-02T17:06:50.044Z,99484.00
2019-01-02T17:09:19.519Z,99491.01
2019-01-02T17:11:49.161Z,99484.98
2019-01-02T17:14:18.713Z,99491.29
2019-01-02T17:16:48.174Z,99481.98
2019-01-02T17:19:17.643Z,99485.34
2019-01-02T17:21:47.093Z,99483.80
2019-01-02T17:24:16.575Z,99483.72
2019-01-02T17:26:46.443Z,99487.08
2019-01-02T17:29:15.956Z,99493.67
2019-01-02T17:31:45.446Z,99494.65
2019-01-02T17:34:14.900Z,99493.91
2019-01-02T17:36:44.356Z,99498.92
2019-01-02T17:39:13.753Z,99501.89
2019-01-02T17:41:43.192Z,99503.22
2019-01-02T17:44:12.694Z,99510.50
2019-01-02T17:46:42.182Z,99515.96
2019-01-02T17:49:11.663Z,99515.02
2019-01-02T17:51:41.129Z,99517.67
2019-01-02T17:54:11.359Z,99516.69
2019-01-02T17:56:40.804Z,99515.57
2019-01-02T17:59:10.262Z,99513.75
2019-01-02T18:01:39.711Z,99510.53
2019-01-02T18:04:09.189Z,99517.39
2019-01-02T18:06:38.605Z,99516.34
2019-01-02T18:09:08.881Z,99512.00
2019-01-02T18:11:38.352Z,99515.36
2019-01-02T18:14:07.879Z,99513.89
2019-01-02T18:16:37.404Z,99518.16
2019-01-02T18:19:06.844Z,99520.41
2019-01-02T18:21:36.291Z,99523.97
2019-01-02T18:24:06.156Z,99524.11
2019-01-02T18:26:36.148Z,99527.47
2019-01-02T18:29:05.641Z,99535.89
2019-01-02T18:31:35.617Z,99538.20
2019-01-02T18:34:05.043Z,99536.45
2019-01-02T18:36:34.514Z,99543.68
2019-01-02T18:39:04.652Z,99545.01
2019-01-02T18:41:34.178Z,99534.25
2019-01-02T18:44:04.350Z,99535.78
2019-01-02T18:46:33.753Z,99541.27
2019-01-02T18:49:03.263Z,99547.47
2019-01-02T18:51:32.792Z,99538.44
2019-01-02T18:54:02.259Z,99546.70
2019-01-02T18:56:31.735Z,99546.76
2019-01-02T18:59:01.180Z,99538.60
2019-01-02T19:01:30.553Z,99541.45
2019-01-02T19:03:59.980Z,99536.57
2019-01-02T19:06:29.471Z,99533.78
2019-01-02T19:08:59.058Z,99537.27
2019-01-02T19:11:28.499Z,99544.10
2019-01-02T19:13:57.953Z,99544.10
2019-01-02T19:16:27.420Z,99546.84
2019-01-02T19:18:56.915Z,99545.44
2019-01-02T19:21:26.400Z,99534.75
2019-01-02T19:23:55.773Z,99529.09
2019-01-02T19:26:25.215Z,99532.36
2019-01-02T19:28:54.732Z,99527.31
2019-01-02T19:31:24.118Z,99528.81
2019-01-02T19:33:53.490Z,99523.89
2019-01-02T19:36:22.985Z,99525.48
2019-01-02T19:38:52.501Z,99533.27
2019-01-02T19:41:21.895Z,99537.40
2019-01-02T19:43:51.408Z,99542.23
2019-01-02T19:46:20.901Z,99538.10
2019-01-02T19:48:50.333Z,99534.80
2019-01-02T19:51:19.871Z,99526.83
2019-01-02T19:53:49.358Z,99530.89
2019-01-02T19:56:18.797Z,99538.66
2019-01-02T19:58:48.191Z,99536.58
2019-01-02T20:01:17.687Z,99528.12
2019-01-02T20:03:47.143Z,99535.95
2019-01-02T20:06:16.583Z,99531.89
2019-01-02T20:08:45.994Z,99526.23
2019-01-02T20:11:15.445Z,99528.66
2019-01-02T20:13:44.908Z,99526.09
2019-01-02T20:16:14.405Z,99525.73
2019-01-02T20:18:43.837Z,99531.27
2019-01-02T20:21:13.226Z,99532.25
2019-01-02T20:23:42.728Z,99528.34
2019-01-02T20:26:12.204Z,99531.17
2019-01-02T20:28:41.635Z,99526.44
2019-01-02T20:31:11.075Z,99526.78
2019-01-02T20:33:40.538Z,99523.51
2019-01-02T20:36:09.909Z,99520.86
2019-01-02T20:38:39.320Z,99523.65
2019-01-02T20:41:08.830Z,99521.88
2019-01-02T20:43:38.306Z,99519.88
2019-01-02T20:46:07.702Z,99529.50
2019-01-02T20:48:37.059Z,99525.59
2019-01-02T20:51:06.481Z,99523.51
2019-01-02T20:53:35.954Z,99525.45
2019-01-02T20:56:05.476Z,99520.15
2019-01-02T20:58:34.878Z,99515.45
2019-01-02T21:01:04.358Z,99514.88
2019-01-02T21:03:33.750Z,99518.36
2019-01-02T21:06:03.243Z,99515.22
2019-01-02T21:08:32.752Z,99519.86
2019-01-02T21:11:02.156Z,99516.84
2019-01-02T21:13:31.586Z,99518.70
2019-01-02T21:16:00.990Z,99523.19
2019-01-02T21:18:30.494Z,99514.12
2019-01-02T21:20:59.998Z,99518.64
2019-01-02T21:23:29.357Z,99518.44
2019-01-02T21:25:59.724Z,99524.02
2019-01-02T21:28:29.237Z,99521.50
2019-01-02T21:30:58.675Z,99519.98
2019-01-02T21:33:28.067Z,99510.48
2019-01-02T21:35:57.530Z,99506.97
2019-01-02T21:38:26.948Z,99503.42
2019-01-02T21:40:56.317Z,99512.14
2019-01-02T21:43:25.722Z,99518.01
2019-01-02T21:45:55.210Z,99509.27
2019-01-02T21:48:24.656Z,99510.33
2019-01-02T21:50:54.110Z,99520.95
2019-01-02T21:53:23.587Z,99524.22
2019-01-02T21:55:53.074Z,99525.15
2019-01-02T21:58:22.555Z,99530.16
2019-01-02T22:00:52.141Z,99534.48
2019-01-02T22:03:21.537Z,99527.69
2019-01-02T22:05:51.466Z,99521.92
2019-01-02T22:08:20.909Z,99519.75
2019-01-02T22:10:50.400Z,99522.63
2019-01-02T22:13:19.767Z,99517.42
2019-01-02T22:15:49.239Z,99521.83
2019-01-02T22:18:18.742Z,99522.18
2019-01-02T22:20:48.149Z,99525.54
2019-01-02T22:23:17.685Z,99526.81
2019-01-02T22:25:47.117Z,99519.23
2019-01-02T22:28:16.514Z,99525.59
2019-01-02T22:30:45.913Z,99524.03
2019-01-02T22:33:15.393Z,99524.06
2019-01-02T22:35:44.814Z,99530.54
2019-01-02T22:38:14.294Z,99524.39
2019-01-02T22:40:43.759Z,99531.41
2019-01-02T22:43:13.275Z,99538.50
2019-01-02T22:45:42.718Z,99538.72
2019-01-02T22:48:12.123Z,99530.95
2019-01-02T22:50:41.526Z,99543.25
2019-01-02T22:53:11.010Z,99544.97
2019-01-02T22:55:40.452Z,99549.63
2019-01-02T22:58:09.882Z,99557.88
2019-01-02T23:00:56.547Z,99557.78
2019-01-02T23:03:43.372Z,99559.02
2019-01-02T23:06:30.113Z,99558.63
2019-01-02T23:09:21.236Z,99558.55
2019-01-02T23:12:12.642Z,99558.94
2019-01-02T23:15:08.196Z,99563.82
2019-01-02T23:18:02.292Z,99563.36
2019-01-02T23:20:53.589Z,99564.66
2019-01-02T23:23:44.923Z,99564.50
2019-01-02T23:26:45.031Z,99560.04
2019-01-02T23:29:39.183Z,99562.81
2019-01-02T23:32:25.794Z,99562.98
2019-01-02T23:35:32.279Z,99569.73
2019-01-02T23:38:35.763Z,99566.27
2019-01-02T23:41:27.083Z,99564.61
2019-01-02T23:44:13.683Z,99559.38
2019-01-02T23:47:00.636Z,99561.73
2019-01-02T23:49:48.921Z,99560.59
2019-01-02T23:52:39.473Z,99575.66
2019-01-02T23:55:26.340Z,99570.55
2019-01-02T23:58:23.542Z,99575.61
